Brazil, Indiana
Current Conditions -  °F | °C
As of 3:53 AM on Monday 20 Oct 2014 (Local Time) from KHUF Reporting Station
Scattered Clouds Scattered Clouds  
Wind Chill: 46°   Ceiling: Unl
Heat Index: 49°   Visibility: 10mi
Dew Point: 44°   Wind: 7mph
Humidity: 83%   Direction: 200°SSW
Pressure: 30"   Gusts: NA
Location:  39.53°N, 87.12°W
Report Text: KHUF 200753Z 20006KT 10SM SCT120 09/07 A3000 RMK AO2 SLP158 T00940067
Loading
Personal Weather Stations






























Interactive Weather Map
Tropical Storm Tracking
New forecast layout! Learn more

10-Day Weather Forecast

Advertisements
Track Severe Weather on mobile